Pagrindinis puslapis
METAR-TAF:

METAR-TAF

Oro uostai :

Kupangas, Indonezija

platuma: 10-10-17S, ilguma: 123-40-16E, Aukštis: 102 m

Dabartinis oras

Ataskaita buvo paskelbta 28 minutes, ne 01:30 UTC
Vėjas 5 kt iš Šiaurės Vakarų, svyruoja nuo Vakarų ir Šiaurės
Temperatūra 31°C
Drėgmė 71%
Slėgis 1008 hPa
Matomumas 10 km arba daugiau
Mažai debesys ne aukštis 1700 ft

METAR: WATT 290130Z 31005KT 280V350 9999 FEW017 31/25 Q1008 NOSIG

Laikas: 08:58 (01:58 UTC)

Prognozė

Ataskaita buvo paskelbta 2 valandos ir 58 minutes, ne 23:00 UTC
Prognozė galioja nuo 29 metu 00 UTC su 29 metu 24 UTC
Vėjas 4 kt iš Pietų/Pietryčių
Matomumas 10 km arba daugiau
Išsisklaidę debesys ne aukštis 1800 ft
Tapsmas
nuo 29 metu 03 UTC su 29 metu 05 UTC
Vėjas 15 kt iš Vakarų/Šiaurės Vakarų
Tapsmas
nuo 29 metu 10 UTC su 29 metu 12 UTC
Vėjas 5 kt iš Pietryčių

TAF: WATT 282300Z 2900/2924 16004KT 9999 SCT018 BECMG 2903/2905 30015KT BECMG 2910/2912 14005KT

Orai ataskaitas ir orų prognozės (METAR, TAF).

turimą stotys yra geltonos ir raudonos taškus žemėlapyje.

Perkelti pele per norėdami pamatyti stoties vardą.

Tada spustelėkite, norėdami matyti oro stebėjimo ir prognozės.

Norėdami pakeisti žemėlapį: spustelėkite ant žalios mygtukų su juodo kryžiaus žemyn,; žalią mygtuką su brūkšneliu, jei norite nutolinti; arba žalių rodyklių gretimoms žemėlapius.


METAR-TAF: